Sawtelle Peak

Sawtelle summit stationLocated on Sawtelle Peak in the Centennials. Use the Sawtelle SNOdar or the nearest SNOTEL station for snow depth data: White Elephant. The data on this page is also available to view at dataGarrison.com.

 

Elevation
9885ft
Jump to table bottom
Date Time Temperature
deg F
RH, % Wind Speed Wind Gust Wind Direction Pressure Light
02/23/24 03:00 11.8 90 10 31 NW - 313 707.220 1
02/23/24 02:00 12.6 87 11 42 NW - 317 707.260 1
02/23/24 01:00 13.4 85 11 31 NW - 319 707.260 2
02/23/24 00:00 13.8 88 12 31 NW - 314 707.440 2
02/22/24 23:00 13.6 83 14 49 NW - 313 707.360 1
02/22/24 22:00 13.4 91 10 41 NW - 317 707.100 3
02/22/24 21:00 14.3 93 8 36 NW - 320 707.320 4
02/22/24 20:00 14.9 94 8 30 NW - 314 706.840 4
02/22/24 19:00 15.5 92 10 26 NW - 312 707.060 2
02/22/24 18:00 15.3 90 5 23 NW - 326 706.360 122
02/22/24 17:00 15.8 92 7 25 NW - 319 706.560 61,538
02/22/24 16:00 17.4 93 10 24 NW - 316 706.260 404,516
02/22/24 15:00 19.6 84 13 34 NW - 314 706.240 599,778
02/22/24 14:00 20.1 89 8 26 NW - 309 706.320 522,487
02/22/24 13:00 21.1 85 7 17 NW - 302 706.720 729,952
02/22/24 12:00 21.6 85 6 15 NW - 309 706.920 599,778
02/22/24 11:00 26.5 70 4 20 NW - 326 706.800 807,243
02/22/24 10:00 19.9 81 3 20 N - 355 706.500 1,230,309
02/22/24 09:00 20.0 79 5 15 NW - 319 706.040 982,164
02/22/24 08:00 15.2 92 4 11 NW - 326 705.660 136,032
02/22/24 07:00 14.8 94 6 17 NW - 314 705.300 17,490
02/22/24 06:00 14.1 94 1 12 NW - 331 704.900 3
02/22/24 05:00 15.4 95 6 16 NW - 303 704.760 0
02/22/24 04:00 16.0 95 3 16 NW - 312 704.500 1
02/22/24 03:00 16.5 95 5 15 NW - 310 704.420 1
02/22/24 02:00 16.6 96 8 14 NW - 307 704.460 1
02/22/24 01:00 16.4 95 5 13 NW - 319 704.240 1
02/22/24 00:00 16.1 93 7 17 NW - 314 703.840 2
02/21/24 23:00 16.4 94 11 20 NW - 307 703.720 1
02/21/24 22:00 16.3 90 9 18 NW - 314 703.320 2
02/21/24 21:00 16.2 88 9 15 NW - 309 703.100 2
02/21/24 20:00 16.2 90 9 16 NW - 309 702.540 2
02/21/24 19:00 16.4 89 7 13 NW - 319 702.320 2
02/21/24 18:00 17.2 89 8 12 NW - 310 702.020 95
02/21/24 17:00 18.3 89 5 10 NW - 317 701.360 61,792
02/21/24 16:00 21.2 87 3 15 NW - 324 700.960 229,595
02/21/24 15:00 21.5 82 2 15 N - 338 700.580 398,414
02/21/24 14:00 25.5 81 0 15 N - 345 700.140 656,729
02/21/24 13:00 26.0 77 1 10 N - 358 700.120 648,593
02/21/24 12:00 20.9 86 2 6 N - 344 700.280 746,224
02/21/24 11:00 20.0 91 1 18 NW - 319 700.260 459,434
02/21/24 10:00 18.7 94 3 7 NW - 314 700.120 331,293
02/21/24 09:00 18.9 96 3 9 W - 285 699.920 616,049
02/21/24 08:00 18.9 96 3 7 NW - 293 699.860 349,599
02/21/24 07:00 15.6 95 5 13 W - 272 699.780 13,295
02/21/24 06:00 16.0 95 7 15 W - 251 700.060 0
02/21/24 05:00 16.4 95 7 20 W - 253 699.900 0
02/21/24 04:00 16.5 95 10 16 SW - 244 700.100 0
02/21/24 03:00 16.2 95 10 18 W - 250 700.220 0
02/21/24 02:00 16.8 95 7 25 W - 271 700.540 0